createdAt,value
2019-04-10T00:01:25.667Z,56.67
2019-04-10T00:05:31.851Z,55.80
2019-04-10T00:09:36.893Z,58.30
2019-04-10T00:13:42.850Z,57.93
2019-04-10T00:17:49.714Z,61.47
2019-04-10T00:21:55.627Z,59.87
2019-04-10T00:26:01.444Z,62.50
2019-04-10T00:30:07.550Z,66.83
2019-04-10T00:34:13.533Z,70.63
2019-04-10T00:38:19.759Z,69.23
2019-04-10T00:42:25.994Z,75.50
2019-04-10T00:46:30.993Z,82.50
2019-04-10T00:50:36.973Z,78.80
2019-04-10T00:54:42.214Z,78.60
2019-04-10T00:58:47.879Z,71.50
2019-04-10T01:02:54.182Z,76.60
2019-04-10T01:07:00.111Z,84.43
2019-04-10T01:11:06.503Z,83.40
2019-04-10T01:15:12.080Z,86.63
2019-04-10T01:19:17.549Z,102.23
2019-04-10T01:23:22.627Z,112.73
2019-04-10T01:27:27.834Z,127.23
2019-04-10T01:31:32.837Z,120.87
2019-04-10T01:35:38.348Z,123.47
2019-04-10T01:39:43.448Z,119.20
2019-04-10T01:43:48.860Z,131.73
2019-04-10T01:47:53.933Z,141.13
2019-04-10T01:51:59.467Z,128.23
2019-04-10T01:56:05.268Z,128.83
2019-04-10T02:00:13.229Z,130.90
2019-04-10T02:04:18.440Z,137.33
2019-04-10T02:08:23.636Z,144.50
2019-04-10T02:12:28.689Z,157.23
2019-04-10T02:16:34.667Z,147.37
2019-04-10T02:20:39.681Z,148.63
2019-04-10T02:24:44.693Z,160.30
2019-04-10T02:28:49.771Z,153.20
2019-04-10T02:32:54.774Z,163.30
2019-04-10T02:37:00.645Z,148.10
2019-04-10T02:41:06.041Z,173.37
2019-04-10T02:45:14.696Z,188.67
2019-04-10T02:49:22.481Z,197.17
2019-04-10T02:53:27.514Z,205.77
2019-04-10T02:57:34.797Z,199.50
2019-04-10T03:01:39.942Z,208.27
2019-04-10T03:05:46.575Z,189.77
2019-04-10T03:10:02.177Z,191.03
2019-04-10T03:13:59.311Z,198.07
2019-04-10T03:18:04.893Z,183.67
2019-04-10T03:22:10.508Z,172.57
2019-04-10T03:26:15.625Z,153.17
2019-04-10T03:30:22.787Z,149.33
2019-04-10T03:34:33.201Z,142.37
2019-04-10T03:38:47.346Z,119.83
2019-04-10T03:42:43.297Z,117.23
2019-04-10T03:46:49.056Z,118.30
2019-04-10T03:50:54.295Z,109.77
2019-04-10T03:54:59.286Z,111.97
2019-04-10T03:59:04.289Z,114.27
2019-04-10T04:03:09.297Z,114.80
2019-04-10T04:07:15.380Z,105.63
2019-04-10T04:11:20.454Z,109.47
2019-04-10T04:15:26.122Z,107.30
2019-04-10T04:19:31.133Z,115.20
2019-04-10T04:23:36.145Z,113.63
2019-04-10T04:27:42.057Z,121.53
2019-04-10T04:31:47.085Z,114.53
2019-04-10T04:35:53.202Z,137.37
2019-04-10T04:39:58.422Z,123.63
2019-04-10T04:44:03.962Z,126.47
2019-04-10T04:48:09.826Z,126.10
2019-04-10T04:52:16.165Z,115.40
2019-04-10T04:56:21.963Z,112.77
2019-04-10T05:00:27.811Z,111.70
2019-04-10T05:04:33.748Z,98.53
2019-04-10T05:08:39.875Z,94.37
2019-04-10T05:12:45.222Z,92.97
2019-04-10T05:16:50.267Z,92.10
2019-04-10T05:20:55.262Z,82.83
2019-04-10T05:25:00.682Z,79.77
2019-04-10T05:29:05.773Z,84.30
2019-04-10T05:33:10.753Z,76.47
2019-04-10T05:37:15.764Z,75.13
2019-04-10T05:41:21.669Z,72.43
2019-04-10T05:45:27.633Z,71.43
2019-04-10T05:49:33.166Z,74.17
2019-04-10T05:53:38.157Z,65.23
2019-04-10T05:57:43.136Z,71.93
2019-04-10T06:01:48.531Z,62.50
2019-04-10T06:05:54.703Z,71.87
2019-04-10T06:10:04.800Z,72.03
2019-04-10T06:14:06.402Z,70.33
2019-04-10T06:18:12.804Z,70.07
2019-04-10T06:22:18.715Z,67.27
2019-04-10T06:26:23.878Z,70.23
2019-04-10T06:30:30.067Z,63.73
2019-04-10T06:34:36.298Z,64.53
2019-04-10T06:38:41.342Z,65.27
2019-04-10T06:42:50.772Z,67.67
2019-04-10T06:46:55.733Z,65.87
2019-04-10T06:51:01.939Z,57.50
2019-04-10T06:55:07.741Z,66.47
2019-04-10T06:59:14.080Z,56.00
2019-04-10T07:03:19.495Z,54.90
2019-04-10T07:07:27.222Z,60.10
2019-04-10T07:11:32.665Z,53.87
2019-04-10T07:15:40.937Z,49.03
2019-04-10T07:19:45.965Z,53.80
2019-04-10T07:23:52.379Z,54.83
2019-04-10T07:27:58.361Z,47.67
2019-04-10T07:32:07.810Z,48.90
2019-04-10T07:36:12.871Z,49.03
2019-04-10T07:40:18.619Z,46.83
2019-04-10T07:44:23.924Z,45.00
2019-04-10T07:48:29.436Z,53.40
2019-04-10T07:52:34.978Z,43.97
2019-04-10T07:56:41.682Z,42.83
2019-04-10T08:00:49.254Z,47.50
2019-04-10T08:04:55.850Z,44.53
2019-04-10T08:09:01.323Z,41.70
2019-04-10T08:13:08.605Z,35.73
2019-04-10T08:17:14.335Z,35.73
2019-04-10T08:21:19.804Z,33.37
2019-04-10T08:25:27.010Z,31.07
2019-04-10T08:29:32.393Z,33.70
2019-04-10T08:33:38.527Z,47.37
2019-04-10T08:37:45.167Z,27.60
2019-04-10T08:41:50.582Z,28.43
2019-04-10T08:45:56.847Z,29.63
2019-04-10T08:50:02.165Z,31.03
2019-04-10T08:54:08.601Z,28.33
2019-04-10T08:58:14.482Z,31.07
2019-04-10T09:02:20.110Z,27.50
2019-04-10T09:06:25.425Z,32.00
2019-04-10T09:10:31.782Z,31.63
2019-04-10T09:14:37.189Z,29.17
2019-04-10T09:18:42.521Z,31.67
2019-04-10T09:23:10.325Z,25.47
2019-04-10T09:26:54.929Z,26.17
2019-04-10T09:31:00.197Z,28.37
2019-04-10T09:35:06.922Z,30.03
2019-04-10T09:39:13.670Z,29.10
2019-04-10T09:43:18.966Z,28.13
2019-04-10T09:47:24.900Z,26.93
2019-04-10T09:51:30.150Z,25.40
2019-04-10T09:55:36.291Z,28.43
2019-04-10T09:59:42.641Z,28.73
2019-04-10T10:03:49.261Z,26.87
2019-04-10T10:07:56.159Z,30.23
2019-04-10T10:12:03.066Z,30.23
2019-04-10T10:16:10.587Z,26.83
2019-04-10T10:20:16.576Z,26.77
2019-04-10T10:24:22.498Z,28.30
2019-04-10T10:28:28.897Z,31.27
2019-04-10T10:32:35.121Z,30.63
2019-04-10T10:36:44.437Z,25.57
2019-04-10T10:40:47.319Z,28.03
2019-04-10T10:44:52.874Z,29.63
2019-04-10T10:48:58.182Z,28.60
2019-04-10T10:53:04.033Z,28.03
2019-04-10T10:57:09.438Z,31.43
2019-04-10T11:01:15.769Z,26.67
2019-04-10T11:05:21.194Z,27.13
2019-04-10T11:09:26.650Z,31.20
2019-04-10T11:13:33.135Z,29.83
2019-04-10T11:17:39.341Z,25.63
2019-04-10T11:21:46.989Z,25.83
2019-04-10T11:25:52.739Z,24.30
2019-04-10T11:29:59.881Z,25.90
2019-04-10T11:34:08.260Z,25.60
2019-04-10T11:38:13.433Z,24.30
2019-04-10T11:42:21.024Z,22.43
2019-04-10T11:46:29.826Z,23.20
2019-04-10T11:50:34.830Z,25.87
2019-04-10T11:54:41.367Z,25.43
2019-04-10T11:58:53.756Z,22.53
2019-04-10T12:02:57.226Z,30.57
2019-04-10T12:07:02.097Z,23.67
2019-04-10T12:11:10.994Z,23.70
2019-04-10T12:15:14.574Z,22.50
2019-04-10T12:19:19.869Z,25.40
2019-04-10T12:23:27.198Z,30.40
2019-04-10T12:27:33.442Z,25.03
2019-04-10T12:31:39.759Z,22.83
2019-04-10T12:35:45.758Z,22.37
2019-04-10T12:39:51.069Z,21.37
2019-04-10T12:43:56.990Z,23.77
2019-04-10T12:48:02.323Z,21.43
2019-04-10T12:52:08.045Z,22.53
2019-04-10T12:56:13.757Z,23.33
2019-04-10T13:00:25.826Z,19.87
2019-04-10T13:04:32.217Z,23.77
2019-04-10T13:08:52.509Z,23.00
2019-04-10T13:12:45.566Z,23.87
2019-04-10T13:16:52.098Z,28.87
2019-04-10T13:20:57.906Z,25.73
2019-04-10T13:25:05.989Z,21.70
2019-04-10T13:29:12.001Z,21.13
2019-04-10T13:33:17.406Z,24.40
2019-04-10T13:37:22.693Z,22.80
2019-04-10T13:41:28.254Z,27.67
2019-04-10T13:45:35.329Z,21.33
2019-04-10T13:49:40.729Z,20.47
2019-04-10T13:53:46.090Z,23.97
2019-04-10T13:57:51.449Z,20.00
2019-04-10T14:01:57.163Z,23.00
2019-04-10T14:06:03.355Z,21.70
2019-04-10T14:10:10.387Z,26.77
2019-04-10T14:14:16.209Z,22.73
2019-04-10T14:18:22.332Z,23.33
2019-04-10T14:22:27.622Z,20.67
2019-04-10T14:26:48.931Z,25.83
2019-04-10T14:30:51.606Z,25.47
2019-04-10T14:34:56.861Z,18.70
2019-04-10T14:39:10.043Z,18.47
2019-04-10T14:43:10.482Z,21.67
2019-04-10T14:47:17.065Z,20.63
2019-04-10T14:51:22.442Z,17.77
2019-04-10T14:55:27.804Z,18.73
2019-04-10T14:59:33.801Z,18.77
2019-04-10T15:03:40.290Z,18.80
2019-04-10T15:07:46.780Z,20.37
2019-04-10T15:11:53.100Z,18.97
2019-04-10T15:16:00.827Z,19.10
2019-04-10T15:20:06.960Z,17.80
2019-04-10T15:24:13.418Z,19.45
2019-04-10T15:28:18.766Z,19.93
2019-04-10T15:32:25.243Z,16.57
2019-04-10T15:36:31.788Z,18.60
2019-04-10T15:40:37.250Z,16.63
2019-04-10T15:44:43.441Z,15.83
2019-04-10T15:48:49.062Z,16.87
2019-04-10T15:52:55.671Z,17.80
2019-04-10T15:57:02.510Z,14.63
2019-04-10T16:01:10.413Z,17.20
2019-04-10T16:05:17.391Z,19.13
2019-04-10T16:09:25.314Z,20.63
2019-04-10T16:13:32.629Z,16.20
2019-04-10T16:17:41.977Z,16.93
2019-04-10T16:21:47.545Z,21.30
2019-04-10T16:25:54.479Z,16.83
2019-04-10T16:30:03.700Z,16.63
2019-04-10T16:34:09.782Z,16.63
2019-04-10T16:38:16.353Z,17.90
2019-04-10T16:42:22.299Z,15.37
2019-04-10T16:46:28.137Z,16.83
2019-04-10T16:50:34.178Z,16.47
2019-04-10T16:54:40.741Z,18.47
2019-04-10T16:58:46.297Z,15.30
2019-04-10T17:02:52.736Z,17.43
2019-04-10T17:06:58.811Z,17.93
2019-04-10T17:11:07.055Z,17.03
2019-04-10T17:15:12.958Z,21.77
2019-04-10T17:19:19.359Z,17.95
2019-04-10T17:23:24.888Z,17.17
2019-04-10T17:27:30.237Z,19.03
2019-04-10T17:31:35.209Z,21.47
2019-04-10T17:35:40.202Z,27.57
2019-04-10T17:39:45.200Z,18.00
2019-04-10T17:43:51.560Z,18.93
2019-04-10T17:47:57.884Z,16.00
2019-04-10T17:52:04.216Z,17.00
2019-04-10T17:56:10.285Z,16.67
2019-04-10T18:00:22.986Z,17.87
2019-04-10T18:04:28.149Z,17.97
2019-04-10T18:08:33.169Z,15.87
2019-04-10T18:12:38.364Z,20.43
2019-04-10T18:16:44.312Z,15.07
2019-04-10T18:20:49.964Z,16.73
2019-04-10T18:24:56.157Z,18.87
2019-04-10T18:29:02.437Z,18.37
2019-04-10T18:33:08.517Z,16.73
2019-04-10T18:37:15.785Z,19.83
2019-04-10T18:41:22.072Z,19.80
2019-04-10T18:45:28.023Z,19.37
2019-04-10T18:49:33.722Z,17.67
2019-04-10T18:53:39.470Z,17.30
2019-04-10T18:57:45.211Z,20.07
2019-04-10T19:02:03.986Z,15.97
2019-04-10T19:06:10.648Z,19.10
2019-04-10T19:10:15.810Z,22.30
2019-04-10T19:14:20.822Z,19.23
2019-04-10T19:18:25.924Z,20.37
2019-04-10T19:22:31.028Z,18.00
2019-04-10T19:26:36.209Z,18.70
2019-04-10T19:30:47.665Z,19.50
2019-04-10T19:34:52.038Z,17.40
2019-04-10T19:38:57.890Z,15.40
2019-04-10T19:43:04.016Z,19.20
2019-04-10T19:47:10.294Z,15.90
2019-04-10T19:51:16.309Z,15.53
2019-04-10T19:55:21.975Z,21.40
2019-04-10T19:59:27.185Z,18.67
2019-04-10T20:03:32.237Z,18.40
2019-04-10T20:07:37.486Z,17.47
2019-04-10T20:11:46.679Z,17.77
2019-04-10T20:15:49.070Z,15.73
2019-04-10T20:19:56.667Z,14.67
2019-04-10T20:24:00.679Z,18.23
2019-04-10T20:28:06.714Z,18.43
2019-04-10T20:32:12.691Z,15.67
2019-04-10T20:36:17.741Z,13.43
2019-04-10T20:40:22.742Z,18.47
2019-04-10T20:44:28.954Z,14.03
2019-04-10T20:48:34.205Z,14.80
2019-04-10T20:52:40.842Z,17.80
2019-04-10T20:56:46.523Z,14.50
2019-04-10T21:00:51.702Z,13.63
2019-04-10T21:05:03.164Z,15.63
2019-04-10T21:09:05.303Z,19.53
2019-04-10T21:13:12.855Z,19.97
2019-04-10T21:17:18.021Z,15.10
2019-04-10T21:21:24.273Z,16.10
2019-04-10T21:25:29.423Z,19.23
2019-04-10T21:29:44.825Z,20.53
2019-04-10T21:34:07.705Z,18.47
2019-04-10T21:38:13.176Z,15.80
2019-04-10T21:42:22.218Z,23.33
2019-04-10T21:46:24.983Z,19.10
2019-04-10T21:50:30.113Z,17.03
2019-04-10T21:54:35.119Z,17.53
2019-04-10T21:58:40.838Z,19.43
2019-04-10T22:02:46.933Z,20.67
2019-04-10T22:06:59.533Z,16.77
2019-04-10T22:11:04.694Z,17.77
2019-04-10T22:15:11.331Z,17.03
2019-04-10T22:19:16.748Z,15.93
2019-04-10T22:23:22.445Z,19.70
2019-04-10T22:27:27.568Z,18.20
2019-04-10T22:31:34.112Z,17.87
2019-04-10T22:35:39.876Z,16.43
2019-04-10T22:39:44.981Z,23.03
2019-04-10T22:43:50.019Z,18.97
2019-04-10T22:47:56.282Z,20.10
2019-04-10T22:52:02.535Z,24.03
2019-04-10T22:56:08.816Z,21.43
2019-04-10T23:00:18.004Z,22.97
2019-04-10T23:04:24.589Z,26.37
2019-04-10T23:08:31.649Z,25.70
2019-04-10T23:12:48.592Z,25.67
2019-04-10T23:16:44.234Z,21.10
2019-04-10T23:20:50.274Z,24.73
2019-04-10T23:24:56.044Z,21.37
2019-04-10T23:29:02.082Z,22.47
2019-04-10T23:33:08.064Z,20.23
2019-04-10T23:37:13.051Z,21.83
2019-04-10T23:41:19.022Z,21.53
2019-04-10T23:45:24.027Z,22.93
2019-04-10T23:49:29.851Z,22.47
2019-04-10T23:53:34.897Z,25.27
2019-04-10T23:57:39.890Z,26.47
